Time;durP1;ratioP1;P1;durP2;ratioP2;P2;SDS_P1;SDS_P2;PMS_P1;PMS_P2;Temp;Humidity;BMP_temperature;BMP_pressure;BME280_temperature;BME280_humidity;BME280_pressure;Samples;Min_cycle;Max_cycle;Signal;HPM_P1;HPM_P2
2022/05/30 00:01:53;;;;;;;;;;;;;;;9.47;69.74;99531.81;5012667;28;20096;-77
2022/05/30 00:04:19;;;;;;;8.65;3.50;;;;;;;9.35;69.62;99539.63;5004740;28;19912;-78
2022/05/30 00:06:44;;;;;;;;;;;;;;;9.36;70.06;99536.16;5003414;28;20483;-78
2022/05/30 00:09:13;;;;;;;4.80;3.15;;;;;;;9.14;69.27;99530.13;5013372;28;19913;-77
2022/05/30 00:11:40;;;;;;;5.47;3.05;;;;;;;9.00;70.28;99531.88;4995689;28;20038;-78
2022/05/30 00:14:05;;;;;;;5.82;3.30;;;;;;;8.94;70.20;99527.56;4995131;28;20029;-77
2022/05/30 00:16:31;;;;;;;;;;;;;;;9.02;70.98;99527.53;4996233;28;20408;-77
2022/05/30 00:18:57;;;;;;;4.63;3.13;;;;;;;8.87;70.77;99531.00;4995240;28;20004;-78
2022/05/30 00:21:24;;;;;;;7.95;3.00;;;;;;;8.75;71.11;99525.78;5011777;28;20064;-78
2022/05/30 00:23:53;;;;;;;7.78;3.25;;;;;;;8.75;71.20;99529.28;5010652;28;20114;-78
2022/05/30 00:26:19;;;;;;;6.68;3.00;;;;;;;8.69;71.12;99533.56;5020276;28;20128;-77
2022/05/30 00:28:44;;;;;;;;;;;;;;;8.77;72.24;99539.59;5013356;28;20123;-77
2022/05/30 00:31:11;;;;;;;6.43;3.00;;;;;;;8.67;71.28;99537.88;5026949;28;19924;-78
2022/05/30 00:33:37;;;;;;;6.35;3.22;;;;;;;8.61;71.56;99537.00;5011504;28;20499;-78
2022/05/30 00:36:03;;;;;;;5.60;2.95;;;;;;;8.60;71.63;99542.16;5008584;28;20121;-78
2022/05/30 00:38:29;;;;;;;;;;;;;;;8.71;72.06;99544.78;5028933;28;20849;-78
2022/05/30 00:40:55;;;;;;;7.70;3.00;;;;;;;8.58;71.05;99543.88;5009240;28;19924;-78
2022/05/30 00:43:27;;;;;;;;;;;;;;;8.60;71.77;99543.00;5000764;28;20036;-78
2022/05/30 00:45:55;;;;;;;5.65;3.20;;;;;;;8.49;71.48;99549.91;5014775;28;20398;-78
2022/05/30 00:48:23;;;;;;;5.57;2.90;;;;;;;8.44;71.54;99540.41;5004776;28;20029;-77
2022/05/30 00:50:49;;;;;;;4.32;2.72;;;;;;;8.42;71.74;99553.31;5024012;28;20045;-77
2022/05/30 00:53:15;;;;;;;;;;;;;;;8.52;72.16;99556.78;5036199;28;20030;-77
2022/05/30 00:55:41;;;;;;;8.82;3.17;;;;;;;8.42;71.19;99555.91;5020937;28;20055;-77
2022/05/30 00:58:07;;;;;;;5.75;3.05;;;;;;;8.38;71.52;99555.06;5016654;28;20041;-77
2022/05/30 01:00:33;;;;;;;;;;;;;;;8.46;71.62;99559.38;5007436;28;20084;-78
2022/05/30 01:08:29;;;;;;;4.45;3.17;;;;;;;8.32;71.19;99564.47;5012032;28;20093;-78
2022/05/30 01:10:55;;;;;;;5.05;3.42;;;;;;;8.30;71.30;99567.03;5019056;28;20438;-79
2022/05/30 01:13:23;;;;;;;3.67;2.90;;;;;;;8.27;71.11;99561.00;5029572;28;20495;-79
2022/05/30 01:15:49;;;;;;;4.75;2.97;;;;;;;8.26;71.14;99572.19;4977539;28;20453;-78
2022/05/30 01:18:17;;;;;;;;;;;;;;;8.35;71.05;99567.06;5027002;28;20137;-80
2022/05/30 01:20:51;;;;;;;4.68;3.03;;;;;;;8.17;70.62;99561.81;4998756;28;19972;-77
2022/05/30 01:23:32;;;;;;;5.35;3.05;;;;;;;8.05;71.44;99563.47;5010675;28;20490;-79
2022/05/30 01:26:17;;;;;;;5.30;3.05;;;;;;;8.03;71.53;99567.78;4995183;28;20045;-77
2022/05/30 01:29:12;;;;;;;6.00;3.17;;;;;;;8.04;71.96;99569.50;5006599;28;20041;-80
2022/05/30 01:31:38;;;;;;;7.57;3.45;;;;;;;8.00;71.41;99575.53;5010586;28;20409;-78
2022/05/30 01:34:04;;;;;;;;;;;;;;;8.08;71.92;99579.00;5042538;28;20053;-78
2022/05/30 01:36:31;;;;;;;6.18;3.58;;;;;;;7.93;71.59;99576.38;5028374;28;19917;-78
2022/05/30 01:38:57;;;;;;;5.45;3.03;;;;;;;7.87;71.55;99579.75;4996595;28;20043;-78
2022/05/30 01:41:44;;;;;;;7.30;3.30;;;;;;;7.85;71.70;99586.63;5015458;28;20042;-78
2022/05/30 01:44:11;;;;;;;5.18;3.67;;;;;;;7.84;71.98;99584.06;5012474;28;20052;-79
2022/05/30 01:46:36;;;;;;;;;;;;;;;7.96;72.23;99591.84;5011558;28;20033;-77
2022/05/30 01:49:04;;;;;;;4.40;3.10;;;;;;;7.89;71.12;99590.09;5045258;28;19917;-78
2022/05/30 01:51:29;;;;;;;4.47;3.10;;;;;;;7.82;71.70;99590.91;5014721;28;20030;-78
2022/05/30 01:54:00;;;;;;;5.93;3.35;;;;;;;7.77;71.68;99592.63;5019815;28;20042;-78
2022/05/30 01:56:35;;;;;;;7.82;3.42;;;;;;;7.71;71.85;99592.59;5025553;28;20041;-78
2022/05/30 01:59:01;;;;;;;4.38;2.92;;;;;;;7.69;72.35;99599.44;5012105;28;20090;-78
2022/05/30 02:01:45;;;;;;;4.97;3.28;;;;;;;7.72;72.49;99599.47;5028563;28;20096;-78
2022/05/30 02:04:14;;;;;;;5.60;3.00;;;;;;;7.75;72.13;99596.91;5028495;28;20764;-78
2022/05/30 02:06:39;;;;;;;4.28;3.00;;;;;;;7.82;72.30;99596.94;4996558;28;20034;-78
2022/05/30 02:09:05;;;;;;;;;;;;;;;7.99;72.79;99604.78;5053318;28;20057;-78
2022/05/30 02:11:32;;;;;;;3.95;2.95;;;;;;;7.94;71.58;99600.47;5029831;28;19936;-78
2022/05/30 02:14:15;;;;;;;3.83;2.72;;;;;;;7.86;71.39;99590.09;4980644;28;20087;-78
2022/05/30 02:17:01;;;;;;;6.72;2.90;;;;;;;7.91;71.87;99603.88;5036671;28;20049;-78
2022/05/30 02:19:36;;;;;;;5.72;3.00;;;;;;;7.94;72.19;99606.50;5008648;28;20057;-77
2022/05/30 02:22:09;;;;;;;4.40;2.85;;;;;;;7.92;71.78;99605.59;5022784;28;20049;-78
2022/05/30 02:24:36;;;;;;;5.05;2.90;;;;;;;7.93;72.11;99604.78;5019814;28;20046;-77
2022/05/30 02:27:01;;;;;;;;;;;;;;;8.15;72.25;99616.06;5052971;28;20056;-78
2022/05/30 02:29:28;;;;;;;4.80;2.80;;;;;;;8.10;71.96;99612.59;5022719;28;19968;-77
2022/05/30 02:31:57;;;;;;;5.97;3.30;;;;;;;8.08;71.77;99612.59;5009403;28;20128;-78
2022/05/30 02:37:08;;;;;;;5.50;3.17;;;;;;;8.07;72.32;99620.34;4980654;28;20041;-79
2022/05/30 02:39:35;;;;;;;4.68;3.30;;;;;;;8.07;73.67;99616.03;5007516;28;20030;-77
2022/05/30 02:42:19;;;;;;;4.28;3.13;;;;;;;8.19;73.98;99616.94;5024861;28;20056;-77
2022/05/30 02:44:45;;;;;;;;;;;;;;;8.37;74.79;99622.22;5014772;28;20038;-78
2022/05/30 02:47:11;;;;;;;4.43;3.10;;;;;;;8.32;73.69;99624.75;5006320;28;20284;-78
2022/05/30 02:49:42;;;;;;;4.00;2.90;;;;;;;8.37;73.60;99627.41;4992325;28;20038;-77
2022/05/30 02:52:07;;;;;;;;;;;;;;;8.50;74.26;99630.91;5038187;28;20044;-78
2022/05/30 02:54:33;;;;;;;6.28;3.13;;;;;;;8.51;73.83;99630.91;4995936;28;19913;-77
2022/05/30 02:57:02;;;;;;;3.47;2.80;;;;;;;8.57;74.16;99625.78;5027454;28;20497;-78
2022/05/30 02:59:29;;;;;;;4.03;2.80;;;;;;;8.62;74.06;99631.81;5015044;28;20037;-78
2022/05/30 03:02:06;;;;;;;5.50;3.30;;;;;;;8.71;73.84;99633.56;5041350;28;20037;-78
2022/05/30 03:04:32;;;;;;;4.78;3.15;;;;;;;8.75;73.34;99645.66;4994279;28;20065;-78
2022/05/30 03:07:02;;;;;;;5.53;3.33;;;;;;;8.82;73.45;99641.34;4999795;28;20049;-78
2022/05/30 03:09:29;;;;;;;4.70;3.47;;;;;;;8.86;73.19;99648.25;5030817;28;20048;-80
2022/05/30 03:12:15;;;;;;;5.80;3.45;;;;;;;8.96;73.42;99657.75;5008344;28;20128;-78
2022/05/30 03:14:41;;;;;;;;;;;;;;;9.12;74.19;99666.44;5014595;28;20121;-79
2022/05/30 03:17:08;;;;;;;;;;;;;;;9.21;74.27;99670.75;5004056;28;20020;-78
2022/05/30 03:19:37;;;;;;;5.15;3.20;;;;;;;9.15;73.16;99680.22;5002935;28;19970;-78
2022/05/30 03:22:03;;;;;;;;;;;;;;;9.26;73.65;99682.84;5001786;28;20029;-77
2022/05/30 03:24:32;;;;;;;5.40;3.22;;;;;;;9.26;73.56;99687.16;5028727;28;19921;-79
2022/05/30 03:26:58;;;;;;;;;;;;;;;9.40;74.28;99696.69;4997968;28;20041;-79
2022/05/30 03:29:24;;;;;;;5.63;3.35;;;;;;;9.38;73.07;99689.75;5034007;28;19917;-79
2022/05/30 03:31:50;;;;;;;;;;;;;;;9.50;73.38;99700.13;4983156;28;20035;-79
2022/05/30 03:34:16;;;;;;;3.95;2.20;;;;;;;9.50;73.75;99699.28;5012429;28;20353;-79
2022/05/30 03:36:42;;;;;;;;;;;;;;;9.60;74.36;99695.81;5013894;28;20050;-79
2022/05/30 03:39:26;;;;;;;3.67;2.30;;;;;;;9.57;73.93;99690.63;5008957;28;20771;-79
2022/05/30 03:42:18;;;;;;;4.25;2.30;;;;;;;9.61;73.35;99692.34;4999952;28;20153;-79
2022/05/30 03:44:54;;;;;;;3.47;2.10;;;;;;;9.71;73.14;99694.09;5012225;28;20060;-78
2022/05/30 03:47:19;;;;;;;3.75;2.08;;;;;;;9.74;73.50;99690.63;4980184;28;20042;-79
2022/05/30 03:49:46;;;;;;;5.13;2.97;;;;;;;9.81;73.81;99682.00;5012376;28;20557;-79
2022/05/30 03:52:14;;;;;;;;;;;;;;;9.99;73.92;99678.50;5029335;28;20048;-79
2022/05/30 03:54:41;;;;;;;4.78;2.15;;;;;;;10.00;72.38;99675.94;5012386;28;19921;-80
2022/05/30 03:57:07;;;;;;;5.18;2.30;;;;;;;10.07;72.97;99667.28;5031731;28;20046;-78
2022/05/30 03:59:32;;;;;;;;;;;;;;;10.23;72.49;99680.22;5012115;28;20034;-78
2022/05/30 04:01:59;;;;;;;3.53;2.10;;;;;;;10.23;71.37;99669.84;4996380;28;19940;-79
2022/05/30 04:04:24;;;;;;;;;;;;;;;10.33;71.80;99680.22;5012539;28;20026;-79
2022/05/30 04:06:50;;;;;;;4.80;2.30;;;;;;;10.34;71.94;99676.75;5011716;28;19952;-80
2022/05/30 04:09:17;;;;;;;6.70;2.20;;;;;;;10.39;71.57;99676.72;5020153;28;20468;-79
2022/05/30 04:12:09;;;;;;;3.30;2.25;;;;;;;10.47;71.41;99682.75;5031021;28;20049;-78
2022/05/30 04:15:19;;;;;;;4.85;2.53;;;;;;;10.59;70.89;99680.13;4974261;28;20038;-78
2022/05/30 04:17:45;;;;;;;4.68;2.50;;;;;;;10.63;71.35;99681.84;5010146;28;20041;-79
2022/05/30 04:20:11;;;;;;;;;;;;;;;10.77;71.70;99678.34;5011980;28;20049;-80
2022/05/30 04:22:36;;;;;;;4.45;2.72;;;;;;;10.74;71.80;99679.19;5028661;28;19917;-79
2022/05/30 04:25:34;;;;;;;5.25;3.00;;;;;;;10.77;72.08;99675.75;4999126;28;20038;-78
2022/05/30 04:28:00;;;;;;;;;;;;;;;10.93;72.02;99682.56;4998430;28;20136;-79
2022/05/30 04:30:28;;;;;;;4.97;2.28;;;;;;;10.94;71.65;99686.88;5013143;28;19920;-79
2022/05/30 04:32:54;;;;;;;;;;;;;;;11.01;71.29;99678.19;5013913;28;20045;-79
2022/05/30 04:35:20;;;;;;;7.07;2.33;;;;;;;11.00;71.09;99684.28;5014266;28;19917;-79
2022/05/30 04:37:47;;;;;;;;;;;;;;;11.11;70.40;99684.19;5029394;28;20047;-78
2022/05/30 04:40:40;;;;;;;5.18;2.30;;;;;;;11.12;70.40;99681.59;5016150;28;20007;-79
2022/05/30 04:43:32;;;;;;;4.47;2.25;;;;;;;11.15;70.04;99673.78;5021723;28;20053;-78
2022/05/30 04:46:19;;;;;;;6.47;2.40;;;;;;;11.19;69.32;99672.91;5030170;28;20553;-80
2022/05/30 04:48:49;;;;;;;4.40;2.30;;;;;;;11.29;69.02;99678.03;5014877;28;20041;-78
2022/05/30 04:51:14;;;;;;;;;;;;;;;11.41;69.12;99683.16;5028797;28;20040;-79
2022/05/30 04:53:40;;;;;;;3.67;2.15;;;;;;;11.44;68.53;99683.09;5030819;28;19923;-78
2022/05/30 04:56:29;;;;;;;6.10;2.30;;;;;;;11.47;67.98;99679.63;5026594;28;20052;-79
2022/05/30 04:59:04;;;;;;;6.20;2.22;;;;;;;11.53;67.11;99675.25;5028314;28;20033;-79
2022/05/30 05:01:30;;;;;;;4.57;2.22;;;;;;;11.59;67.29;99677.81;5024854;28;20037;-78
2022/05/30 05:03:56;;;;;;;9.90;2.40;;;;;;;11.66;66.96;99682.06;5011762;28;20091;-79
2022/05/30 05:06:22;;;;;;;;;;;;;;;11.78;67.20;99686.31;5008871;28;20531;-80
2022/05/30 05:08:58;;;;;;;3.63;2.30;;;;;;;11.80;66.91;99687.16;4995929;28;19913;-79
2022/05/30 05:11:34;;;;;;;5.03;2.10;;;;;;;11.85;66.08;99694.94;5037135;28;20863;-79
2022/05/30 05:14:18;;;;;;;7.05;1.75;;;;;;;11.99;65.91;99689.63;5029412;28;20462;-79
2022/05/30 05:17:04;;;;;;;5.32;1.90;;;;;;;12.06;65.36;99686.09;5026538;28;20045;-79
2022/05/30 05:19:32;;;;;;;4.13;2.55;;;;;;;12.09;64.56;99681.72;5012097;28;20497;-80
2022/05/30 05:21:58;;;;;;;4.97;2.28;;;;;;;12.14;64.72;99684.25;5010279;28;20033;-79
2022/05/30 05:24:24;;;;;;;;;;;;;;;12.26;64.68;99683.28;5043859;28;20148;-82
2022/05/30 05:27:16;;;;;;;5.93;1.85;;;;;;;12.35;63.46;99678.00;5029486;28;19913;-80
2022/05/30 05:29:42;;;;;;;3.53;1.80;;;;;;;12.39;62.98;99669.28;4982281;28;20061;-80
2022/05/30 05:32:08;;;;;;;;;;;;;;;12.47;63.25;99667.44;5023697;28;20037;-81
2022/05/30 05:34:34;;;;;;;4.50;1.85;;;;;;;12.52;61.72;99678.66;4997344;28;19921;-80
2022/05/30 05:36:59;;;;;;;;;;;;;;;12.62;61.97;99676.81;5012565;28;20077;-79
2022/05/30 05:39:29;;;;;;;4.00;1.58;;;;;;;12.63;61.42;99668.97;5000080;28;19925;-79
2022/05/30 05:41:56;;;;;;;3.00;1.55;;;;;;;12.68;60.82;99672.38;5028814;28;20026;-79
2022/05/30 05:44:22;;;;;;;4.88;1.52;;;;;;;12.76;60.66;99666.22;5024083;28;20072;-79
2022/05/30 05:46:49;;;;;;;4.75;1.45;;;;;;;12.83;60.97;99670.44;5028688;28;20120;-79
2022/05/30 05:49:16;;;;;;;3.55;1.70;;;;;;;12.91;61.73;99674.69;4996860;28;20043;-79
2022/05/30 05:51:41;;;;;;;;;;;;;;;13.05;61.69;99682.31;5009298;28;20034;-79
2022/05/30 05:54:11;;;;;;;4.72;1.50;;;;;;;13.08;61.20;99676.19;5028606;28;19967;-79
2022/05/30 05:56:38;;;;;;;3.75;1.58;;;;;;;13.18;61.10;99680.41;5010262;28;20068;-79
2022/05/30 05:59:13;;;;;;;7.43;1.48;;;;;;;13.26;60.53;99680.31;5011473;28;20037;-79
2022/05/30 06:01:39;;;;;;;3.80;1.55;;;;;;;13.36;60.29;99677.56;4987716;28;20041;-79
2022/05/30 06:04:05;;;;;;;;;;;;;;;13.49;60.57;99673.00;5021513;28;20034;-80
2022/05/30 06:06:44;;;;;;;6.57;2.03;;;;;;;13.56;60.18;99679.88;5052819;28;19917;-82
2022/05/30 06:09:11;;;;;;;4.28;1.80;;;;;;;13.65;60.15;99676.22;5030462;28;20128;-81
2022/05/30 06:11:45;;;;;;;3.70;1.50;;;;;;;13.76;59.80;99679.53;5003008;28;20045;-79
2022/05/30 06:14:11;;;;;;;;;;;;;;;13.92;60.23;99683.59;4994966;28;20496;-80
2022/05/30 06:16:39;;;;;;;5.43;1.40;;;;;;;14.08;58.08;99681.56;5028114;28;19917;-80
2022/05/30 06:19:06;;;;;;;3.58;1.30;;;;;;;14.29;55.82;99682.06;5005882;28;20044;-80
2022/05/30 06:21:32;;;;;;;;;;;;;;;14.49;56.82;99695.63;4977280;28;20432;-79
2022/05/30 06:23:58;;;;;;;3.22;1.38;;;;;;;14.70;54.07;99692.56;5008843;28;19939;-81
2022/05/30 06:26:44;;;;;;;3.88;1.20;;;;;;;14.97;52.96;99690.28;5015716;28;20048;-82
2022/05/30 06:29:16;;;;;;;1.80;1.10;;;;;;;15.17;51.11;99690.72;4996977;28;20042;-80
2022/05/30 06:31:43;;;;;;;4.88;1.00;;;;;;;15.42;51.05;99690.16;4996380;28;20089;-79
2022/05/30 06:34:09;;;;;;;;;;;;;;;15.61;52.52;99688.81;5020585;28;20500;-78
2022/05/30 06:36:38;;;;;;;4.90;1.00;;;;;;;15.87;49.59;99692.59;5002970;28;19924;-79
2022/05/30 06:39:04;;;;;;;2.85;1.10;;;;;;;16.07;48.66;99687.69;5017731;28;20053;-80
2022/05/30 06:41:34;;;;;;;3.08;1.17;;;;;;;16.23;47.74;99688.16;5032763;28;20471;-79
2022/05/30 06:44:06;;;;;;;3.58;1.30;;;;;;;16.42;47.14;99692.00;5019895;28;20041;-80
2022/05/30 06:46:50;;;;;;;3.33;1.30;;;;;;;16.64;46.39;99687.03;4997132;28;20045;-79
2022/05/30 06:49:51;;;;;;;3.17;0.98;;;;;;;16.93;45.93;99699.31;5014599;28;20512;-80
2022/05/30 06:52:23;;;;;;;2.13;1.00;;;;;;;17.22;43.57;99705.44;5021332;28;20095;-80
2022/05/30 06:54:48;;;;;;;2.47;1.00;;;;;;;17.45;43.85;99712.59;5013758;28;20073;-79
2022/05/30 06:59:59;;;;;;;1.08;0.70;;;;;;;17.80;41.32;99708.00;4998964;28;20045;-80
2022/05/30 07:02:26;;;;;;;3.22;0.90;;;;;;;17.83;41.80;99707.94;4998564;28;20037;-79
2022/05/30 07:05:12;;;;;;;5.83;1.07;;;;;;;17.90;40.41;99709.41;5000095;28;20046;-81
2022/05/30 07:07:58;;;;;;;9.95;1.23;;;;;;;17.78;40.76;99708.94;5015081;28;20474;-79
2022/05/30 07:10:52;;;;;;;1.27;0.80;;;;;;;17.74;41.16;99730.06;5012839;28;20045;-79
2022/05/30 07:13:20;;;;;;;3.08;0.90;;;;;;;17.76;41.13;99734.34;5015840;28;20554;-81
2022/05/30 07:15:48;;;;;;;3.60;0.90;;;;;;;17.88;40.86;99729.63;5031762;28;20028;-80
2022/05/30 07:18:20;;;;;;;1.33;0.80;;;;;;;17.97;41.13;99738.03;5013738;28;20072;-78
2022/05/30 07:20:55;;;;;;;2.47;0.90;;;;;;;17.92;41.60;99729.47;5006895;28;20453;-79
2022/05/30 07:23:21;;;;;;;2.90;0.85;;;;;;;17.84;40.63;99731.47;5030191;28;20049;-79
2022/05/30 07:26:07;;;;;;;1.73;0.80;;;;;;;17.73;40.72;99736.16;5026393;28;20044;-79
2022/05/30 07:28:58;;;;;;;4.32;0.75;;;;;;;17.64;40.28;99737.34;5010497;28;20600;-80
2022/05/30 07:31:43;;;;;;;2.03;0.85;;;;;;;17.73;40.63;99730.91;5014320;28;20072;-83
2022/05/30 07:34:28;;;;;;;3.60;0.90;;;;;;;17.77;40.82;99722.94;5003292;28;20105;-83
2022/05/30 07:37:12;;;;;;;1.70;0.90;;;;;;;17.81;40.26;99725.47;5014592;28;20523;-80
2022/05/30 07:39:51;;;;;;;4.00;1.10;;;;;;;17.77;40.66;99725.56;5041344;28;20144;-78
2022/05/30 07:42:41;;;;;;;1.77;0.90;;;;;;;17.88;41.09;99732.25;4985729;28;20045;-80
2022/05/30 07:45:32;;;;;;;3.47;0.80;;;;;;;18.13;40.77;99730.50;5013200;28;20127;-81
2022/05/30 07:48:27;;;;;;;3.58;0.80;;;;;;;18.20;38.12;99718.91;4997956;28;20100;-79
2022/05/30 07:51:24;;;;;;;3.13;0.88;;;;;;;18.23;36.88;99726.66;5011332;28;20055;-80
2022/05/30 07:53:57;;;;;;;1.63;0.80;;;;;;;18.53;37.50;99731.75;5013012;28;20049;-80
2022/05/30 07:56:30;;;;;;;2.72;0.75;;;;;;;18.83;36.96;99744.72;5013209;28;20030;-80
2022/05/30 07:58:56;;;;;;;1.05;0.75;;;;;;;19.10;36.01;99745.47;5001521;28;20497;-82
2022/05/30 08:01:22;;;;;;;1.40;0.75;;;;;;;19.39;35.82;99742.59;5027993;28;20037;-80
2022/05/30 08:03:53;;;;;;;2.10;0.80;;;;;;;19.71;35.48;99741.34;5013303;28;20137;-81
2022/05/30 08:06:54;;;;;;;2.40;0.82;;;;;;;20.08;34.81;99737.22;5023400;28;20533;-81
2022/05/30 08:09:58;;;;;;;2.85;0.75;;;;;;;20.51;34.73;99733.63;5025311;28;20427;-80
2022/05/30 08:12:28;;;;;;;1.65;0.80;;;;;;;20.92;33.23;99727.44;5017338;28;20068;-81
2022/05/30 08:14:54;;;;;;;1.88;0.98;;;;;;;21.10;32.98;99733.66;5029936;28;20057;-79
2022/05/30 08:17:21;;;;;;;2.92;0.98;;;;;;;20.96;32.83;99740.41;5025052;28;20451;-81
2022/05/30 08:19:47;;;;;;;3.88;0.90;;;;;;;21.16;32.73;99739.47;5027909;28;20191;-80
2022/05/30 08:22:12;;;;;;;2.42;0.90;;;;;;;21.44;32.02;99725.03;5024305;28;20044;-81
2022/05/30 08:24:41;;;;;;;3.70;0.80;;;;;;;21.74;31.63;99720.91;5023420;28;20101;-79
2022/05/30 08:27:12;;;;;;;3.80;1.05;;;;;;;21.99;31.26;99707.38;5012459;28;20044;-80
2022/05/30 08:29:51;;;;;;;2.58;0.80;;;;;;;22.38;30.23;99721.28;5012468;28;20076;-81
2022/05/30 08:32:17;;;;;;;6.55;0.93;;;;;;;22.60;29.73;99713.09;5011950;28;20077;-81
2022/05/30 08:35:03;;;;;;;4.57;0.88;;;;;;;22.76;28.38;99714.81;5013617;28;20077;-80
2022/05/30 08:37:33;;;;;;;2.28;0.90;;;;;;;22.92;28.02;99722.84;4989410;28;20096;-80
2022/05/30 08:42:50;;;;;;;5.63;1.83;;;;;;;23.53;27.20;99731.81;5030888;28;20100;-81
2022/05/30 08:45:30;;;;;;;4.97;0.80;;;;;;;23.83;26.72;99724.81;5008797;28;20389;-79
2022/05/30 08:48:12;;;;;;;4.15;0.85;;;;;;;24.09;26.80;99735.69;4979818;28;20420;-80
2022/05/30 08:50:52;;;;;;;4.47;1.17;;;;;;;24.26;26.97;99738.19;5027881;28;20126;-81
2022/05/30 08:53:56;;;;;;;2.58;0.88;;;;;;;24.31;27.50;99749.38;4996744;28;20088;-81
2022/05/30 08:56:33;;;;;;;3.60;0.90;;;;;;;24.18;27.16;99737.78;5024343;28;20038;-81
2022/05/30 08:59:30;;;;;;;2.75;0.90;;;;;;;24.37;27.24;99734.94;5005864;28;20046;-81
2022/05/30 09:02:01;;;;;;;3.17;0.80;;;;;;;24.62;26.43;99734.31;5011765;28;20041;-80
2022/05/30 09:04:55;;;;;;;5.45;1.00;;;;;;;24.89;26.54;99725.63;5035890;28;20416;-80
2022/05/30 09:07:24;;;;;;;1.83;0.80;;;;;;;24.98;26.50;99733.00;4991905;28;20112;-80
2022/05/30 09:10:13;;;;;;;1.75;0.68;;;;;;;25.10;25.89;99724.28;5018387;28;20484;-80
2022/05/30 09:13:06;;;;;;;3.83;1.00;;;;;;;25.33;26.03;99720.16;5007809;28;20041;-83
2022/05/30 09:16:06;;;;;;;4.47;1.23;;;;;;;25.69;25.33;99711.63;5008965;28;20038;-80
2022/05/30 09:18:47;;;;;;;2.53;0.90;;;;;;;25.95;25.64;99701.09;5022819;28;20038;-81
2022/05/30 09:21:14;;;;;;;1.70;0.80;;;;;;;26.43;23.66;99720.88;5041957;28;20052;-81
2022/05/30 09:23:42;;;;;;;3.72;1.15;;;;;;;26.69;23.96;99713.75;5009053;28;20084;-80
2022/05/30 09:26:16;;;;;;;4.28;0.90;;;;;;;26.85;23.45;99721.53;5009906;28;20047;-80
2022/05/30 09:28:51;;;;;;;4.57;1.10;;;;;;;26.70;24.30;99704.81;5008752;28;20484;-84
2022/05/30 09:31:35;;;;;;;3.30;0.93;;;;;;;26.41;23.79;99704.16;5012499;28;20135;-80
2022/05/30 09:34:39;;;;;;;2.50;0.90;;;;;;;26.70;24.29;99712.78;5012461;28;20054;-80
2022/05/30 09:37:35;;;;;;;5.53;1.20;;;;;;;27.37;24.00;99699.16;5012498;28;20083;-80
2022/05/30 09:40:09;;;;;;;4.25;0.95;;;;;;;28.09;21.79;99696.50;5012244;28;20389;-81
2022/05/30 09:42:49;;;;;;;2.72;0.75;;;;;;;28.73;22.94;99696.88;4995651;28;20382;-80
2022/05/30 09:45:24;;;;;;;2.55;0.95;;;;;;;29.06;21.01;99692.50;5008020;28;20418;-81
2022/05/30 09:48:13;;;;;;;2.05;0.60;;;;;;;29.10;20.72;99677.94;4999296;28;20103;-81
2022/05/30 09:50:57;;;;;;;1.40;0.70;;;;;;;29.16;19.74;99672.09;5024831;28;20041;-84
2022/05/30 09:53:51;;;;;;;1.20;0.63;;;;;;;28.98;20.35;99673.56;5011496;28;20040;-81
2022/05/30 09:56:20;;;;;;;1.50;0.80;;;;;;;28.99;20.71;99660.09;5011598;28;20050;-82
2022/05/30 09:59:18;;;;;;;1.35;0.65;;;;;;;29.15;20.96;99657.03;5011768;28;20488;-82
2022/05/30 10:01:54;;;;;;;1.23;0.90;;;;;;;29.42;20.98;99645.06;5030397;28;20143;-82
2022/05/30 10:04:34;;;;;;;2.85;0.80;;;;;;;29.60;21.12;99639.06;4995047;28;20089;-83
2022/05/30 10:07:13;;;;;;;1.70;0.70;;;;;;;29.65;19.79;99630.66;5009127;28;20037;-82
2022/05/30 10:10:28;;;;;;;1.75;0.88;;;;;;;29.55;21.08;99624.38;5017167;28;20046;-82
2022/05/30 10:13:01;;;;;;;2.97;1.00;;;;;;;29.61;20.85;99623.88;4982358;28;20555;-83
2022/05/30 10:15:57;;;;;;;1.13;0.60;;;;;;;29.83;20.72;99615.75;5032542;28;20056;-85
2022/05/30 10:18:33;;;;;;;2.28;0.63;;;;;;;29.91;19.76;99616.91;5032700;28;20550;-81
2022/05/30 10:21:17;;;;;;;4.47;2.53;;;;;;;30.16;19.59;99635.28;5017334;28;20413;-82
2022/05/30 10:31:00;;;;;;;3.53;0.80;;;;;;;29.85;20.20;99648.53;5040222;28;20052;-84
2022/05/30 10:33:44;;;;;;;1.45;0.70;;;;;;;30.12;19.99;99642.69;5019874;28;20053;-82
2022/05/30 10:36:22;;;;;;;2.78;1.30;;;;;;;29.96;19.78;99642.28;5006858;28;20056;-85
2022/05/30 10:39:01;;;;;;;1.50;0.70;;;;;;;29.77;20.21;99624.25;5017537;28;20054;-83
2022/05/30 10:41:53;;;;;;;1.42;0.65;;;;;;;29.82;19.96;99629.22;5006004;28;20223;-82
2022/05/30 10:44:27;;;;;;;1.23;0.70;;;;;;;30.25;20.44;99617.56;5014659;28;20050;-83
2022/05/30 10:47:17;;;;;;;6.00;0.80;;;;;;;30.56;19.63;99610.38;5014752;28;20092;-83
2022/05/30 10:49:59;;;;;;;3.22;0.80;;;;;;;31.04;19.02;99625.78;5026573;28;20492;-83
2022/05/30 10:52:31;;;;;;;3.58;1.00;;;;;;;31.05;19.38;99611.41;5029154;28;20048;-81
2022/05/30 10:55:01;;;;;;;5.75;0.70;;;;;;;31.62;18.66;99623.19;5030954;28;20046;-82
2022/05/30 10:57:37;;;;;;;4.63;0.88;;;;;;;31.84;18.33;99622.91;5011256;28;20543;-82
2022/05/30 11:00:05;;;;;;;1.45;0.68;;;;;;;31.31;18.92;99617.09;5004928;28;20407;-83
2022/05/30 11:02:50;;;;;;;1.48;0.68;;;;;;;30.64;20.21;99613.22;5001387;28;20041;-84
2022/05/30 11:05:25;;;;;;;2.45;0.60;;;;;;;30.73;20.03;99584.81;4993884;28;20092;-84
2022/05/30 11:07:54;;;;;;;;;;;;;;;31.20;20.35;99601.97;4984912;28;20069;-82
2022/05/30 11:10:32;;;;;;;1.45;0.70;;;;;;;30.95;19.44;99602.50;5014935;28;19913;-81
2022/05/30 11:13:14;;;;;;;2.63;0.75;;;;;;;30.45;20.39;99607.81;5006822;28;20064;-81
2022/05/30 11:15:58;;;;;;;1.70;0.70;;;;;;;29.98;20.73;99602.03;5025314;28;20439;-85
2022/05/30 11:19:20;;;;;;;1.63;0.70;;;;;;;30.15;21.07;99606.81;4992741;28;20034;-82
2022/05/30 11:22:16;;;;;;;0.88;0.60;;;;;;;29.45;20.09;99586.84;5024437;28;20473;-80
2022/05/30 11:24:43;;;;;;;1.63;0.93;;;;;;;28.57;21.67;99595.78;5036499;28;20096;-86
2022/05/30 11:27:30;;;;;;;2.20;0.52;;;;;;;28.23;22.79;99602.91;5003327;28;20037;-82
2022/05/30 11:30:22;;;;;;;3.42;0.70;;;;;;;27.98;22.80;99589.78;5027477;28;20090;-82
2022/05/30 11:32:58;;;;;;;1.98;0.60;;;;;;;28.01;22.94;99601.06;5016432;28;20428;-80
2022/05/30 11:35:37;;;;;;;1.98;0.80;;;;;;;28.40;21.94;99593.59;5023547;28;20041;-81
2022/05/30 11:38:40;;;;;;;2.30;0.88;;;;;;;29.24;22.10;99597.50;5006316;28;20038;-81
2022/05/30 11:41:16;;;;;;;1.42;0.80;;;;;;;29.85;21.27;99586.19;5024091;28;20040;-81
2022/05/30 11:44:00;;;;;;;2.40;0.70;;;;;;;29.81;21.22;99588.28;5043952;28;20041;-81
2022/05/30 11:46:57;;;;;;;4.88;0.80;;;;;;;28.76;21.79;99573.81;5015081;28;20587;-81
2022/05/30 11:49:31;;;;;;;0.80;0.60;;;;;;;28.22;22.79;99587.88;5022624;28;20041;-81
2022/05/30 11:52:23;;;;;;;1.63;0.60;;;;;;;28.12;23.08;99597.56;5038547;28;20053;-81
2022/05/30 11:55:04;;;;;;;1.83;0.80;;;;;;;28.31;22.48;99588.97;4984043;28;20053;-82
2022/05/30 11:57:47;;;;;;;1.63;0.80;;;;;;;28.56;22.79;99585.25;5013722;28;20034;-81
2022/05/30 12:00:33;;;;;;;2.75;0.80;;;;;;;28.72;22.26;99576.84;5014611;28;20374;-81
2022/05/30 12:03:29;;;;;;;1.67;0.82;;;;;;;28.91;22.78;99577.06;5014579;28;20505;-82
2022/05/30 12:06:35;;;;;;;1.85;1.00;;;;;;;29.57;21.95;99585.00;5014588;28;20041;-80
2022/05/30 12:09:35;;;;;;;2.83;0.80;;;;;;;29.65;21.48;99569.19;5039410;28;20542;-81
2022/05/30 12:12:12;;;;;;;1.17;0.60;;;;;;;29.85;21.98;99564.78;5032190;28;20061;-81
2022/05/30 12:15:22;;;;;;;1.95;0.70;;;;;;;30.42;21.43;99555.38;5032045;28;20045;-83
2022/05/30 12:24:04;;;;;;;6.13;0.90;;;;;;;30.62;20.02;99553.63;5036094;28;20048;-82
2022/05/30 12:26:53;;;;;;;1.90;0.60;;;;;;;29.57;20.81;99566.31;5014113;28;20041;-83
2022/05/30 12:29:52;;;;;;;2.13;0.75;;;;;;;28.19;22.52;99557.94;5013649;28;20045;-81
2022/05/30 12:32:21;;;;;;;1.02;0.65;;;;;;;27.53;23.27;99560.31;5014182;28;20068;-82
2022/05/30 12:35:11;;;;;;;2.35;0.90;;;;;;;27.25;24.30;99562.41;5012621;28;20041;-81
2022/05/30 12:37:51;;;;;;;3.03;0.90;;;;;;;27.50;24.22;99556.09;5013062;28;20045;-82
2022/05/30 12:40:26;;;;;;;2.20;1.05;;;;;;;27.75;23.66;99549.75;5014220;28;20132;-81
2022/05/30 12:43:07;;;;;;;2.97;0.80;;;;;;;28.18;23.88;99553.56;5012647;28;20081;-80
2022/05/30 12:45:37;;;;;;;1.58;0.90;;;;;;;28.74;23.46;99543.72;5012550;28;20116;-82
2022/05/30 12:48:14;;;;;;;2.65;1.15;;;;;;;29.50;21.89;99533.00;5045520;28;20025;-82
2022/05/30 12:50:40;;;;;;;2.50;0.90;;;;;;;29.65;22.22;99537.09;5012900;28;20040;-82
2022/05/30 12:53:06;;;;;;;3.45;1.05;;;;;;;29.27;22.12;99530.44;5013640;28;20037;-81